Time;durP1;ratioP1;P1;durP2;ratioP2;P2;SDS_P1;SDS_P2;PMS_P1;PMS_P2;Temp;Humidity;BMP_temperature;BMP_pressure;BME280_temperature;BME280_humidity;BME280_pressure;Samples;Min_cycle;Max_cycle;Signal;HPM_P1;HPM_P2
2021/10/31 00:00:53;;;;;;;4.78;4.25;;;15.70;99.90;;;;;;5050576;28;20269;-73
2021/10/31 00:03:21;;;;;;;6.35;3.22;;;15.50;99.90;;;;;;5050482;28;20222;-72
2021/10/31 00:05:49;;;;;;;6.88;4.20;;;15.40;99.90;;;;;;5050492;28;20670;-72
2021/10/31 00:08:16;;;;;;;3.65;3.35;;;15.30;99.90;;;;;;5050347;28;20264;-72
2021/10/31 00:10:43;;;;;;;4.10;2.83;;;15.30;99.90;;;;;;5050199;28;20203;-72
2021/10/31 00:13:12;;;;;;;4.97;2.90;;;15.40;99.90;;;;;;5050126;28;20207;-72
2021/10/31 00:15:39;;;;;;;4.80;3.28;;;15.30;99.90;;;;;;5050373;28;20211;-74
2021/10/31 00:18:06;;;;;;;3.00;2.45;;;15.40;99.90;;;;;;5050294;28;20238;-72
2021/10/31 00:20:34;;;;;;;3.40;2.63;;;15.50;99.90;;;;;;5050509;28;20634;-70
2021/10/31 00:23:01;;;;;;;3.92;2.53;;;15.50;99.90;;;;;;5049801;28;20210;-70
2021/10/31 00:25:28;;;;;;;6.10;3.50;;;15.50;99.90;;;;;;5049808;28;20667;-73
2021/10/31 00:27:55;;;;;;;5.82;2.85;;;15.40;99.90;;;;;;5050614;28;20256;-71
2021/10/31 00:30:22;;;;;;;4.55;3.08;;;15.40;99.90;;;;;;5050535;28;20264;-75
2021/10/31 00:32:49;;;;;;;4.88;2.78;;;15.30;99.90;;;;;;5050217;28;20206;-74
2021/10/31 00:35:16;;;;;;;5.50;3.30;;;15.20;99.90;;;;;;5050047;28;20277;-71
2021/10/31 00:37:45;;;;;;;5.53;2.80;;;15.20;99.90;;;;;;5049816;28;20717;-72
2021/10/31 00:40:13;;;;;;;5.72;4.15;;;15.10;99.90;;;;;;5049824;28;20735;-72
2021/10/31 00:42:40;;;;;;;5.68;3.08;;;15.10;99.90;;;;;;5049965;28;20211;-72
2021/10/31 00:45:08;;;;;;;7.22;3.50;;;15.10;99.90;;;;;;5049937;28;20740;-72
2021/10/31 00:47:35;;;;;;;7.50;3.35;;;15.00;99.90;;;;;;5049929;28;20210;-73
2021/10/31 00:50:02;;;;;;;3.25;2.92;;;15.00;99.90;;;;;;5050120;28;20214;-72
2021/10/31 00:52:29;;;;;;;6.35;2.85;;;14.90;99.90;;;;;;5049768;28;20202;-72
2021/10/31 00:54:58;;;;;;;3.58;2.55;;;14.80;99.90;;;;;;5050385;28;20257;-72
2021/10/31 00:57:26;;;;;;;3.47;3.15;;;14.80;99.90;;;;;;5050398;28;20291;-72
2021/10/31 00:59:53;;;;;;;5.30;3.08;;;14.80;99.90;;;;;;5050055;28;20585;-72
2021/10/31 01:02:20;;;;;;;4.20;3.67;;;14.80;99.90;;;;;;5049782;28;20694;-72
2021/10/31 01:04:52;;;;;;;6.18;2.95;;;14.70;99.90;;;;;;5049989;28;20261;-73
2021/10/31 01:07:35;;;;;;;5.25;3.38;;;14.60;99.90;;;;;;5049495;28;20269;-72
2021/10/31 01:10:18;;;;;;;4.50;3.67;;;14.60;99.90;;;;;;5049331;28;20257;-72
2021/10/31 01:13:29;;;;;;;4.18;3.03;;;14.60;99.90;;;;;;5049723;28;20202;-72
2021/10/31 01:16:05;;;;;;;4.15;3.33;;;14.60;99.90;;;;;;5035259;28;20207;-72
2021/10/31 01:18:59;;;;;;;4.10;3.70;;;14.60;99.90;;;;;;5049649;28;20234;-73
2021/10/31 01:21:41;;;;;;;4.65;3.17;;;14.80;99.90;;;;;;5039542;28;20670;-71
2021/10/31 01:24:25;;;;;;;6.85;3.25;;;14.90;99.90;;;;;;5049464;28;20207;-70
2021/10/31 01:27:07;;;;;;;5.80;3.80;;;15.00;99.90;;;;;;5050301;28;20266;-71
2021/10/31 01:29:52;;;;;;;5.30;3.40;;;15.10;99.90;;;;;;5050038;28;20286;-70
2021/10/31 01:32:30;;;;;;;4.63;3.85;;;15.20;99.90;;;;;;5049235;28;20255;-71
2021/10/31 01:35:08;;;;;;;4.82;3.60;;;15.30;99.90;;;;;;5049787;28;20207;-71
2021/10/31 01:37:46;;;;;;;3.90;3.03;;;15.30;99.90;;;;;;5051409;28;20222;-71
2021/10/31 01:40:18;;;;;;;4.95;3.35;;;15.30;99.90;;;;;;5052861;28;20240;-72
2021/10/31 01:43:01;;;;;;;4.85;3.60;;;15.30;99.90;;;;;;5053182;28;20621;-72
2021/10/31 01:45:38;;;;;;;4.60;4.20;;;15.40;99.90;;;;;;5053436;28;20268;-72
2021/10/31 01:48:13;;;;;;;4.95;4.20;;;15.50;99.90;;;;;;5052516;28;20628;-72
2021/10/31 01:50:42;;;;;;;4.70;3.20;;;15.50;99.90;;;;;;5052897;28;20210;-74
2021/10/31 01:53:13;;;;;;;6.28;4.07;;;15.50;99.90;;;;;;5052633;28;20203;-74
2021/10/31 01:55:46;;;;;;;5.65;5.07;;;15.40;99.90;;;;;;5053094;28;20229;-72
2021/10/31 01:58:16;;;;;;;3.38;2.95;;;15.50;99.90;;;;;;5052130;28;20238;-72
2021/10/31 02:00:45;;;;;;;4.63;3.00;;;15.50;99.90;;;;;;5051820;28;20215;-72
2021/10/31 02:03:14;;;;;;;4.88;3.13;;;15.50;99.90;;;;;;5052283;28;20211;-72
2021/10/31 02:05:41;;;;;;;5.25;3.17;;;15.50;99.90;;;;;;5052547;28;20207;-71
2021/10/31 02:08:11;;;;;;;3.95;3.35;;;15.50;99.90;;;;;;5052456;28;20554;-74
2021/10/31 02:10:40;;;;;;;3.80;3.30;;;15.60;99.90;;;;;;5052821;28;20207;-74
2021/10/31 02:13:11;;;;;;;5.47;3.55;;;15.60;99.90;;;;;;5051997;28;20728;-74
2021/10/31 02:15:40;;;;;;;4.65;3.33;;;15.70;99.90;;;;;;5052679;28;20203;-73
2021/10/31 02:18:07;;;;;;;5.78;3.67;;;15.70;99.90;;;;;;5052133;28;20234;-73
2021/10/31 02:20:40;;;;;;;3.78;2.75;;;15.70;99.90;;;;;;5052231;28;20202;-71
2021/10/31 02:23:08;;;;;;;5.00;4.50;;;15.70;99.90;;;;;;5052043;28;20199;-72
2021/10/31 02:25:36;;;;;;;4.40;3.25;;;15.70;99.90;;;;;;5052263;28;20619;-72
2021/10/31 02:28:04;;;;;;;3.78;2.83;;;15.70;99.90;;;;;;5051919;28;20678;-73
2021/10/31 02:30:32;;;;;;;4.10;3.72;;;15.70;99.90;;;;;;5052404;28;20295;-71
2021/10/31 02:32:59;;;;;;;6.53;3.78;;;15.70;99.90;;;;;;5052096;28;20734;-71
2021/10/31 02:35:26;;;;;;;8.52;3.78;;;15.60;99.90;;;;;;5052198;28;20260;-71
2021/10/31 02:37:53;;;;;;;4.55;3.97;;;15.60;99.90;;;;;;5052398;28;20235;-72
2021/10/31 02:40:23;;;;;;;3.40;3.05;;;15.50;99.90;;;;;;5051765;28;20253;-72
2021/10/31 02:42:51;;;;;;;9.65;4.30;;;15.50;99.90;;;;;;5052086;28;20203;-72
2021/10/31 02:45:19;;;;;;;4.63;3.95;;;15.40;99.90;;;;;;5051559;28;20257;-72
2021/10/31 02:47:49;;;;;;;4.70;4.22;;;15.20;99.90;;;;;;5049083;28;20210;-72
2021/10/31 02:50:20;;;;;;;4.10;3.70;;;15.10;99.90;;;;;;5051298;28;20611;-72
2021/10/31 02:53:06;;;;;;;5.13;4.63;;;15.10;99.90;;;;;;5051655;28;20257;-72
2021/10/31 02:55:43;;;;;;;7.20;5.63;;;15.00;99.90;;;;;;5051667;28;20253;-72
2021/10/31 02:58:16;;;;;;;5.22;3.40;;;15.00;99.90;;;;;;5051226;28;20271;-73
2021/10/31 03:00:44;;;;;;;5.43;4.22;;;14.90;99.90;;;;;;5051861;28;20222;-72
2021/10/31 03:03:13;;;;;;;5.80;4.43;;;14.90;99.90;;;;;;5051383;28;20261;-73
2021/10/31 03:05:40;;;;;;;7.32;4.28;;;14.90;99.90;;;;;;5051613;28;20329;-73
2021/10/31 03:08:07;;;;;;;4.30;3.53;;;14.80;99.90;;;;;;5051261;28;20635;-72
2021/10/31 03:10:34;;;;;;;5.55;4.47;;;14.80;99.90;;;;;;5051500;28;20207;-71
2021/10/31 03:13:02;;;;;;;5.85;3.75;;;14.80;99.90;;;;;;5051225;28;20207;-71
2021/10/31 03:15:29;;;;;;;13.73;4.30;;;14.70;99.90;;;;;;5051415;28;20207;-72
2021/10/31 03:17:56;;;;;;;5.13;4.20;;;14.70;99.90;;;;;;5051240;28;20720;-72
2021/10/31 03:20:23;;;;;;;5.57;5.07;;;14.70;99.90;;;;;;5051586;28;20211;-72
2021/10/31 03:22:50;;;;;;;6.40;2.95;;;14.70;99.90;;;;;;5051176;28;20290;-71
2021/10/31 03:25:17;;;;;;;6.93;3.80;;;14.70;99.90;;;;;;5051240;28;20214;-71
2021/10/31 03:27:44;;;;;;;4.90;3.17;;;14.60;99.90;;;;;;5051192;28;20265;-72
2021/10/31 03:30:13;;;;;;;7.18;4.55;;;14.60;99.90;;;;;;5051216;28;20207;-74
2021/10/31 03:32:40;;;;;;;5.60;4.38;;;14.50;99.90;;;;;;5051098;28;20202;-74
2021/10/31 03:35:08;;;;;;;7.38;4.30;;;14.50;99.90;;;;;;5050992;28;20280;-72
2021/10/31 03:37:35;;;;;;;5.38;3.70;;;14.50;99.90;;;;;;5050922;28;20230;-73
2021/10/31 03:40:02;;;;;;;3.95;3.30;;;14.50;99.90;;;;;;5050957;28;20202;-73
2021/10/31 03:42:29;;;;;;;7.50;4.32;;;14.40;99.90;;;;;;5051101;28;20207;-73
2021/10/31 03:44:58;;;;;;;5.68;4.75;;;14.50;99.90;;;;;;5050981;28;20743;-73
2021/10/31 03:47:28;;;;;;;3.95;3.47;;;14.50;99.90;;;;;;5051293;28;20206;-73
2021/10/31 03:49:56;;;;;;;8.02;4.47;;;14.50;99.90;;;;;;5051228;28;20202;-72
2021/10/31 03:52:22;;;;;;;7.68;4.78;;;14.40;99.90;;;;;;5050729;28;20214;-72
2021/10/31 03:54:49;;;;;;;6.88;5.40;;;14.40;99.90;;;;;;5050750;28;20284;-73
2021/10/31 03:57:17;;;;;;;4.88;4.28;;;14.40;99.90;;;;;;5050429;28;20206;-73
2021/10/31 03:59:43;;;;;;;6.68;4.18;;;14.30;99.90;;;;;;5049084;28;20657;-72
2021/10/31 04:02:11;;;;;;;6.95;3.92;;;14.30;99.90;;;;;;5049977;28;20272;-72
2021/10/31 04:04:39;;;;;;;4.95;4.38;;;14.40;99.90;;;;;;5050472;28;20352;-72
2021/10/31 04:07:06;;;;;;;5.97;4.15;;;14.30;99.90;;;;;;5050156;28;20272;-72
2021/10/31 04:09:33;;;;;;;6.35;4.72;;;14.30;99.90;;;;;;5050815;28;20215;-72
2021/10/31 04:12:00;;;;;;;5.55;3.88;;;14.40;99.90;;;;;;5049121;28;20252;-72
2021/10/31 04:14:27;;;;;;;5.50;3.70;;;14.40;99.90;;;;;;5050507;28;20550;-72
2021/10/31 04:16:54;;;;;;;4.60;3.80;;;14.40;99.90;;;;;;5050491;28;20276;-72
2021/10/31 04:19:21;;;;;;;7.00;3.47;;;14.40;99.90;;;;;;5050206;28;20227;-72
2021/10/31 04:21:49;;;;;;;4.22;3.83;;;14.30;99.90;;;;;;5050685;28;20267;-73
2021/10/31 04:24:17;;;;;;;6.97;4.40;;;14.30;99.90;;;;;;5050279;28;20206;-73
2021/10/31 04:26:44;;;;;;;6.88;3.53;;;14.30;99.90;;;;;;5050643;28;20225;-72
2021/10/31 04:29:11;;;;;;;4.57;3.78;;;14.20;99.90;;;;;;5049912;28;20203;-72
2021/10/31 04:31:38;;;;;;;3.60;3.28;;;14.10;99.90;;;;;;5049887;28;20237;-72
2021/10/31 04:34:05;;;;;;;7.40;4.78;;;14.20;99.90;;;;;;5049617;28;20630;-72
2021/10/31 04:36:32;;;;;;;5.38;3.35;;;14.20;99.90;;;;;;5050280;28;20203;-72
2021/10/31 04:39:00;;;;;;;3.92;3.53;;;14.30;99.90;;;;;;5049672;28;20714;-72
2021/10/31 04:41:29;;;;;;;3.00;2.72;;;14.20;99.90;;;;;;5050257;28;20206;-72
2021/10/31 04:43:56;;;;;;;4.88;3.15;;;14.30;99.90;;;;;;5049855;28;20661;-72
2021/10/31 04:46:23;;;;;;;3.90;3.28;;;14.30;99.90;;;;;;5050432;28;20268;-72
2021/10/31 04:48:50;;;;;;;3.92;3.20;;;14.40;99.90;;;;;;5050427;28;20202;-72
2021/10/31 04:51:17;;;;;;;3.70;3.05;;;14.40;99.90;;;;;;5049653;28;20282;-72
2021/10/31 04:53:44;;;;;;;2.35;2.15;;;14.40;99.90;;;;;;5050441;28;20218;-72
2021/10/31 04:56:13;;;;;;;10.73;2.60;;;14.50;99.90;;;;;;5049845;28;20203;-72
2021/10/31 04:58:40;;;;;;;5.50;2.88;;;14.60;99.90;;;;;;5049630;28;20272;-72
2021/10/31 05:01:07;;;;;;;5.18;2.70;;;14.80;99.90;;;;;;5049606;28;20626;-72
2021/10/31 05:03:34;;;;;;;6.75;3.17;;;14.70;99.90;;;;;;5049947;28;20238;-72
2021/10/31 05:06:01;;;;;;;5.32;3.25;;;14.70;99.90;;;;;;5049964;28;20264;-72
2021/10/31 05:08:28;;;;;;;9.85;3.25;;;14.80;99.90;;;;;;5049987;28;20268;-72
2021/10/31 05:10:55;;;;;;;6.97;3.42;;;14.80;99.90;;;;;;5051298;28;20260;-72
2021/10/31 05:13:23;;;;;;;5.82;3.22;;;14.90;99.90;;;;;;5053231;28;20272;-72
2021/10/31 05:15:50;;;;;;;8.52;4.78;;;15.00;99.90;;;;;;5053765;28;20207;-72
2021/10/31 05:18:17;;;;;;;6.38;3.38;;;15.10;99.90;;;;;;5053374;28;20234;-72
2021/10/31 05:20:44;;;;;;;5.07;3.22;;;15.10;99.90;;;;;;5053425;28;20260;-72
2021/10/31 05:23:11;;;;;;;4.95;3.10;;;15.10;99.90;;;;;;5053216;28;20264;-72
2021/10/31 05:25:38;;;;;;;6.38;2.78;;;15.10;99.90;;;;;;5053548;28;20211;-72
2021/10/31 05:28:05;;;;;;;3.22;2.67;;;15.00;99.90;;;;;;5052767;28;20210;-72
2021/10/31 05:30:34;;;;;;;5.30;3.58;;;15.00;99.90;;;;;;5053297;28;20207;-72
2021/10/31 05:33:01;;;;;;;5.22;3.47;;;15.10;99.90;;;;;;5053440;28;20284;-72
2021/10/31 05:35:28;;;;;;;4.28;2.78;;;15.10;99.90;;;;;;5053373;28;20207;-72
2021/10/31 05:37:57;;;;;;;3.50;2.78;;;15.10;99.90;;;;;;5053469;28;20211;-72
2021/10/31 05:40:26;;;;;;;7.25;3.20;;;15.20;99.90;;;;;;5053311;28;20222;-72
2021/10/31 05:42:53;;;;;;;4.90;2.80;;;15.30;99.90;;;;;;5053240;28;20269;-72
2021/10/31 05:45:20;;;;;;;3.70;2.38;;;15.30;99.90;;;;;;5052844;28;20245;-72
2021/10/31 05:47:51;;;;;;;4.13;2.78;;;15.30;99.90;;;;;;5052925;28;20674;-72
2021/10/31 05:50:19;;;;;;;6.05;3.00;;;15.30;99.90;;;;;;5052655;28;20744;-71
2021/10/31 05:52:46;;;;;;;4.75;3.28;;;15.40;99.90;;;;;;5052953;28;20683;-72
2021/10/31 05:55:16;;;;;;;6.85;2.50;;;15.40;99.90;;;;;;5052590;28;20206;-72
2021/10/31 05:57:44;;;;;;;6.22;3.15;;;15.40;99.90;;;;;;5052714;28;20199;-72
2021/10/31 06:00:13;;;;;;;6.50;2.78;;;15.40;99.90;;;;;;5051476;28;21354;-72
2021/10/31 06:02:40;;;;;;;5.65;3.33;;;15.40;99.90;;;;;;5052452;28;20203;-73
2021/10/31 06:05:11;;;;;;;5.60;2.40;;;15.40;99.90;;;;;;5052156;28;20210;-72
2021/10/31 06:07:38;;;;;;;6.90;3.17;;;15.40;99.90;;;;;;5052616;28;20251;-70
2021/10/31 06:10:06;;;;;;;4.68;2.92;;;15.40;99.90;;;;;;5052390;28;20214;-68
2021/10/31 06:12:33;;;;;;;5.35;3.28;;;15.40;99.90;;;;;;5052812;28;20203;-67
2021/10/31 06:15:01;;;;;;;4.72;3.65;;;15.40;99.90;;;;;;5052535;28;20211;-71
2021/10/31 06:17:29;;;;;;;8.02;2.75;;;15.50;99.90;;;;;;5038927;28;20199;-72
2021/10/31 06:19:56;;;;;;;4.18;2.63;;;15.40;99.90;;;;;;5051982;28;20718;-73
2021/10/31 06:22:24;;;;;;;4.85;2.60;;;15.50;99.90;;;;;;5050801;28;20215;-71
2021/10/31 06:24:51;;;;;;;5.68;3.08;;;15.50;99.90;;;;;;5052577;28;20210;-71
2021/10/31 06:27:18;;;;;;;3.30;2.03;;;15.50;99.90;;;;;;5051741;28;20206;-71
2021/10/31 06:29:45;;;;;;;3.90;2.33;;;15.50;99.90;;;;;;5052085;28;20257;-72
2021/10/31 06:32:12;;;;;;;4.57;2.50;;;15.50;99.90;;;;;;5051025;28;20206;-71
2021/10/31 06:34:39;;;;;;;4.43;1.92;;;15.60;99.90;;;;;;5052018;28;20206;-72
2021/10/31 06:37:06;;;;;;;3.53;2.05;;;15.60;99.90;;;;;;5052119;28;20272;-72
2021/10/31 06:39:34;;;;;;;3.55;2.10;;;15.60;99.90;;;;;;5052103;28;20226;-73
2021/10/31 06:42:01;;;;;;;4.25;2.15;;;15.70;99.90;;;;;;5051737;28;20211;-72
2021/10/31 06:44:28;;;;;;;8.10;4.18;;;15.70;99.90;;;;;;5051953;28;20256;-72
2021/10/31 06:46:55;;;;;;;7.60;2.78;;;15.70;99.90;;;;;;5051329;28;20260;-70
2021/10/31 06:49:22;;;;;;;2.78;2.10;;;15.80;99.90;;;;;;5046201;28;20246;-71
2021/10/31 06:51:49;;;;;;;6.20;2.13;;;15.90;99.90;;;;;;5051623;28;20261;-68
2021/10/31 06:54:16;;;;;;;2.83;2.08;;;16.00;99.90;;;;;;5051327;28;20214;-67
2021/10/31 06:56:45;;;;;;;7.70;3.20;;;16.00;99.90;;;;;;5051524;28;20294;-67
2021/10/31 06:59:12;;;;;;;4.82;3.00;;;16.10;99.90;;;;;;5051173;28;20235;-68
2021/10/31 07:01:39;;;;;;;10.02;3.65;;;16.10;99.90;;;;;;5051263;28;20579;-69
2021/10/31 07:04:07;;;;;;;4.15;3.00;;;16.20;99.90;;;;;;5051078;28;20264;-67
2021/10/31 07:06:35;;;;;;;4.43;2.85;;;16.20;99.90;;;;;;5051396;28;20253;-69
2021/10/31 07:09:03;;;;;;;4.53;3.42;;;16.20;99.90;;;;;;5051136;28;20253;-66
2021/10/31 07:11:30;;;;;;;9.05;3.42;;;16.20;99.90;;;;;;5051343;28;20215;-67
2021/10/31 07:13:58;;;;;;;4.30;2.78;;;16.30;99.90;;;;;;5051261;28;20203;-67
2021/10/31 07:16:25;;;;;;;6.47;3.38;;;16.30;99.90;;;;;;5051375;28;20674;-67
2021/10/31 07:18:53;;;;;;;9.93;3.58;;;16.30;99.90;;;;;;5051591;28;20222;-68
2021/10/31 07:21:20;;;;;;;4.70;3.13;;;16.40;99.90;;;;;;5051012;28;20674;-68
2021/10/31 07:23:47;;;;;;;6.90;3.53;;;16.40;99.90;;;;;;5050777;28;20736;-68
2021/10/31 07:26:14;;;;;;;6.72;3.20;;;16.30;99.90;;;;;;5049551;28;20211;-68
2021/10/31 07:28:41;;;;;;;8.85;4.40;;;16.40;99.90;;;;;;5049415;28;20207;-68
2021/10/31 07:31:13;;;;;;;6.20;4.28;;;16.30;99.90;;;;;;5050712;28;20662;-67
2021/10/31 07:33:40;;;;;;;7.18;3.10;;;16.40;99.90;;;;;;5050723;28;20214;-69
2021/10/31 07:36:07;;;;;;;9.65;4.90;;;16.40;99.90;;;;;;5050513;28;20260;-67
2021/10/31 07:38:35;;;;;;;6.35;3.10;;;16.40;99.90;;;;;;5050545;28;20214;-67
2021/10/31 07:41:02;;;;;;;7.55;3.63;;;16.50;99.90;;;;;;5050541;28;20214;-67
2021/10/31 07:43:29;;;;;;;8.38;3.70;;;16.40;99.90;;;;;;5050838;28;20206;-68
2021/10/31 07:45:56;;;;;;;6.88;4.18;;;16.40;99.90;;;;;;5050490;28;20622;-67
2021/10/31 07:48:25;;;;;;;8.65;5.40;;;16.50;99.90;;;;;;5050339;28;20625;-67
2021/10/31 07:50:51;;;;;;;8.77;4.15;;;16.50;99.90;;;;;;5049564;28;20215;-68
2021/10/31 07:53:19;;;;;;;8.80;4.95;;;16.50;99.90;;;;;;5050102;28;20639;-67
2021/10/31 07:55:50;;;;;;;7.55;3.90;;;16.60;99.90;;;;;;5050294;28;20217;-68
2021/10/31 07:58:20;;;;;;;7.57;4.22;;;16.60;99.90;;;;;;5049381;28;20203;-67
2021/10/31 08:00:49;;;;;;;7.05;3.92;;;16.70;99.90;;;;;;5049525;28;20327;-68
2021/10/31 08:03:17;;;;;;;7.82;4.03;;;16.70;99.90;;;;;;5049993;28;20210;-68
2021/10/31 08:05:46;;;;;;;6.38;3.35;;;16.70;99.90;;;;;;5050636;28;20199;-68
2021/10/31 08:08:14;;;;;;;7.25;3.67;;;16.80;99.90;;;;;;5049847;28;20238;-68
2021/10/31 08:10:41;;;;;;;8.18;4.40;;;16.90;99.90;;;;;;5050377;28;20633;-68
2021/10/31 08:13:08;;;;;;;6.35;4.70;;;17.00;99.90;;;;;;5049077;28;20203;-68
2021/10/31 08:15:35;;;;;;;11.38;3.78;;;17.10;99.90;;;;;;5049196;28;20256;-67
2021/10/31 08:18:02;;;;;;;5.85;3.92;;;17.20;99.90;;;;;;5048776;28;20356;-68
2021/10/31 08:20:29;;;;;;;11.23;3.80;;;17.30;99.90;;;;;;5050008;28;20231;-68
2021/10/31 08:22:58;;;;;;;8.65;3.80;;;17.20;99.90;;;;;;5049310;28;20246;-68
2021/10/31 08:25:25;;;;;;;8.40;3.67;;;17.30;99.90;;;;;;5050660;28;20198;-68
2021/10/31 08:27:53;;;;;;;6.28;3.50;;;17.30;99.90;;;;;;5050578;28;20207;-68
2021/10/31 08:30:28;;;;;;;6.70;3.22;;;17.40;99.90;;;;;;5048995;28;20207;-69
2021/10/31 08:32:56;;;;;;;8.77;3.33;;;17.50;99.90;;;;;;5050904;28;20202;-69
2021/10/31 08:35:24;;;;;;;7.35;3.42;;;17.50;99.90;;;;;;5049779;28;20654;-68
2021/10/31 08:37:51;;;;;;;5.57;3.10;;;17.50;99.90;;;;;;5041922;28;20213;-68
2021/10/31 08:40:19;;;;;;;3.92;3.08;;;17.40;99.90;;;;;;5049716;28;20284;-68
2021/10/31 08:42:46;;;;;;;6.00;2.75;;;17.40;99.90;;;;;;5049360;28;20214;-68
2021/10/31 08:45:13;;;;;;;4.25;2.70;;;17.40;99.90;;;;;;5047872;28;20642;-68
2021/10/31 08:47:41;;;;;;;3.72;2.50;;;17.50;99.90;;;;;;5053617;28;20264;-67
2021/10/31 08:50:09;;;;;;;6.07;2.70;;;17.40;99.90;;;;;;5053507;28;20264;-68
2021/10/31 08:52:36;;;;;;;8.07;3.13;;;17.60;99.90;;;;;;5053724;28;20574;-68
2021/10/31 08:55:04;;;;;;;4.22;2.65;;;17.70;99.90;;;;;;5053118;28;20210;-68
2021/10/31 08:57:32;;;;;;;5.30;2.22;;;17.60;99.90;;;;;;5053576;28;20206;-68
2021/10/31 08:59:59;;;;;;;7.40;4.55;;;17.60;99.90;;;;;;5049767;28;20231;-68
2021/10/31 09:02:27;;;;;;;7.95;3.42;;;17.60;99.90;;;;;;5054146;28;20692;-68
2021/10/31 09:04:55;;;;;;;8.63;4.43;;;17.60;99.90;;;;;;5054246;28;20203;-67
2021/10/31 09:07:22;;;;;;;4.78;3.00;;;17.60;99.90;;;;;;5054201;28;20207;-68
2021/10/31 09:09:49;;;;;;;9.02;2.72;;;17.60;99.90;;;;;;5054106;28;20273;-68
2021/10/31 09:12:17;;;;;;;10.05;3.88;;;17.60;99.90;;;;;;5051996;28;20207;-69
2021/10/31 09:14:45;;;;;;;6.40;3.15;;;17.70;99.90;;;;;;5050295;28;20682;-72
2021/10/31 09:17:12;;;;;;;5.32;2.78;;;17.70;99.90;;;;;;5052698;28;20203;-73
2021/10/31 09:19:39;;;;;;;6.53;4.35;;;17.60;99.90;;;;;;5053212;28;20697;-69
2021/10/31 09:22:06;;;;;;;4.60;2.60;;;17.50;99.90;;;;;;5052600;28;20626;-69
2021/10/31 09:24:33;;;;;;;4.88;2.85;;;17.50;99.90;;;;;;5053314;28;20248;-69
2021/10/31 09:27:00;;;;;;;4.85;3.17;;;17.50;99.90;;;;;;5051009;28;20206;-69
2021/10/31 09:29:28;;;;;;;6.43;2.70;;;17.50;99.90;;;;;;5051722;28;20206;-69
2021/10/31 09:31:57;;;;;;;5.72;3.55;;;17.50;99.90;;;;;;5050281;28;20202;-68
2021/10/31 09:34:26;;;;;;;5.45;2.70;;;17.60;99.90;;;;;;5052772;28;20203;-69
2021/10/31 09:36:53;;;;;;;7.82;3.63;;;17.50;99.90;;;;;;5053701;28;20207;-68
2021/10/31 09:39:20;;;;;;;7.15;3.65;;;17.50;99.90;;;;;;5051552;28;20206;-68
2021/10/31 09:41:49;;;;;;;9.35;3.17;;;17.60;99.90;;;;;;5053088;28;20215;-69
2021/10/31 09:44:19;;;;;;;3.10;2.40;;;17.60;99.90;;;;;;5052492;28;20705;-68
2021/10/31 09:46:47;;;;;;;4.57;3.00;;;17.50;99.90;;;;;;5052053;28;20207;-68
2021/10/31 09:49:15;;;;;;;5.40;3.15;;;17.40;99.90;;;;;;5052230;28;20211;-68
2021/10/31 09:51:44;;;;;;;5.18;2.33;;;17.50;99.90;;;;;;5052968;28;20623;-68
2021/10/31 09:54:12;;;;;;;3.13;2.65;;;17.60;99.90;;;;;;5052049;28;20207;-68
2021/10/31 09:56:40;;;;;;;7.07;2.58;;;17.60;99.90;;;;;;5050912;28;20257;-68
2021/10/31 09:59:11;;;;;;;3.83;2.42;;;17.60;99.90;;;;;;5051338;28;20214;-68
2021/10/31 10:02:01;;;;;;;6.88;3.30;;;17.70;99.90;;;;;;5052765;28;20284;-68
2021/10/31 10:04:32;;;;;;;5.60;2.97;;;17.70;99.90;;;;;;5052831;28;20209;-68
2021/10/31 10:07:01;;;;;;;5.53;2.50;;;17.80;99.90;;;;;;5052493;28;20226;-69
2021/10/31 10:09:30;;;;;;;5.20;2.42;;;18.00;99.90;;;;;;5052606;28;21045;-68
2021/10/31 10:12:00;;;;;;;5.07;2.75;;;18.00;99.90;;;;;;5052670;28;20215;-68
2021/10/31 10:14:28;;;;;;;4.55;2.28;;;18.00;99.90;;;;;;5052208;28;20238;-68
2021/10/31 10:16:58;;;;;;;3.13;2.20;;;17.90;99.90;;;;;;5052764;28;20203;-68
2021/10/31 10:19:27;;;;;;;5.43;2.45;;;18.10;99.90;;;;;;5052706;28;20324;-68
2021/10/31 10:22:02;;;;;;;7.15;3.05;;;18.70;99.90;;;;;;5052388;28;20202;-68
2021/10/31 10:24:31;;;;;;;2.78;2.03;;;18.90;99.90;;;;;;5052664;28;20199;-68
2021/10/31 10:27:01;;;;;;;3.50;2.40;;;19.00;99.90;;;;;;5052039;28;20214;-69
2021/10/31 10:29:30;;;;;;;3.00;1.95;;;19.00;99.90;;;;;;5052276;28;20195;-68
2021/10/31 10:31:59;;;;;;;3.03;2.72;;;19.00;99.90;;;;;;5052067;28;20261;-68
2021/10/31 10:34:41;;;;;;;5.90;2.35;;;19.00;99.90;;;;;;5051857;28;20229;-69
2021/10/31 10:37:11;;;;;;;4.47;2.38;;;19.10;99.90;;;;;;5051558;28;20206;-68
2021/10/31 10:39:40;;;;;;;4.68;2.22;;;19.20;99.90;;;;;;5051750;28;20264;-68
2021/10/31 10:42:08;;;;;;;3.83;2.42;;;19.20;99.90;;;;;;5051615;28;20764;-68
2021/10/31 10:44:36;;;;;;;13.48;9.45;;;19.50;99.90;;;;;;5051746;28;20276;-68
2021/10/31 10:47:05;;;;;;;26.90;18.52;;;19.70;99.90;;;;;;5051443;28;20260;-68
2021/10/31 10:49:35;;;;;;;4.07;3.33;;;19.90;99.90;;;;;;5051617;28;20670;-68
2021/10/31 10:52:21;;;;;;;6.80;2.72;;;19.80;99.90;;;;;;5050438;28;20207;-68
2021/10/31 10:54:52;;;;;;;6.40;2.55;;;19.90;99.90;;;;;;5051311;28;20207;-68
2021/10/31 10:57:20;;;;;;;7.20;2.83;;;19.70;99.90;;;;;;5050767;28;20207;-68
2021/10/31 10:59:55;;;;;;;6.53;2.42;;;19.50;99.90;;;;;;5051738;28;20222;-68
2021/10/31 11:02:24;;;;;;;5.25;2.20;;;19.50;99.90;;;;;;5051514;28;20202;-67
2021/10/31 11:04:56;;;;;;;6.55;2.75;;;19.50;99.90;;;;;;5051024;28;20214;-68
2021/10/31 11:07:44;;;;;;;7.40;4.03;;;19.60;99.90;;;;;;5050958;28;20264;-68
2021/10/31 11:10:15;;;;;;;7.22;3.67;;;19.90;99.90;;;;;;5050898;28;20264;-68
2021/10/31 11:12:43;;;;;;;4.07;2.88;;;19.90;99.90;;;;;;5051346;28;20199;-68
2021/10/31 11:15:12;;;;;;;6.07;3.03;;;20.10;99.90;;;;;;5050798;28;20743;-69
2021/10/31 11:17:41;;;;;;;4.03;2.40;;;20.00;99.90;;;;;;5051056;28;20210;-68
2021/10/31 11:20:10;;;;;;;5.55;2.15;;;20.50;99.90;;;;;;5050536;28;20718;-68
2021/10/31 11:22:38;;;;;;;5.35;2.58;;;20.60;99.90;;;;;;5051391;28;20264;-69
2021/10/31 11:25:08;;;;;;;4.45;2.13;;;20.90;99.90;;;;;;5051240;28;20207;-69
2021/10/31 11:27:36;;;;;;;3.03;2.55;;;20.90;99.90;;;;;;5050870;28;20290;-69
2021/10/31 11:30:04;;;;;;;5.82;2.72;;;20.70;99.90;;;;;;5050770;28;20210;-68
2021/10/31 11:32:31;;;;;;;7.03;2.92;;;20.70;99.90;;;;;;5050958;28;20203;-69
2021/10/31 11:35:01;;;;;;;4.68;2.40;;;20.60;99.90;;;;;;5051364;28;20203;-69
2021/10/31 11:37:33;;;;;;;7.57;2.30;;;20.50;99.90;;;;;;5050966;28;20211;-68
2021/10/31 11:40:03;;;;;;;6.32;3.83;;;20.30;99.90;;;;;;5050389;28;20198;-69
2021/10/31 11:42:37;;;;;;;4.63;2.15;;;20.40;99.90;;;;;;5050604;28;20743;-68
2021/10/31 11:45:08;;;;;;;3.50;2.10;;;20.80;99.90;;;;;;5050315;28;20265;-68
2021/10/31 11:47:37;;;;;;;4.38;2.67;;;20.50;99.90;;;;;;5050652;28;20670;-68
2021/10/31 11:50:08;;;;;;;2.78;1.92;;;20.60;99.90;;;;;;5050412;28;20207;-68
2021/10/31 11:52:47;;;;;;;11.18;2.75;;;20.60;99.90;;;;;;5050803;28;20272;-68
2021/10/31 11:55:33;;;;;;;4.35;2.75;;;20.60;99.90;;;;;;5050398;28;20202;-69
2021/10/31 11:58:23;;;;;;;4.28;2.42;;;20.60;99.90;;;;;;5046283;28;20285;-68
2021/10/31 12:00:51;;;;;;;7.50;2.50;;;20.40;99.90;;;;;;5049306;28;20607;-69
2021/10/31 12:03:51;;;;;;;7.07;2.80;;;20.30;99.90;;;;;;5049308;28;20636;-70
2021/10/31 12:06:51;;;;;;;4.00;2.17;;;20.40;99.90;;;;;;5048759;28;20654;-69
2021/10/31 12:09:30;;;;;;;5.68;2.25;;;20.30;99.90;;;;;;5007201;28;20629;-69
2021/10/31 12:12:08;;;;;;;6.63;2.42;;;20.70;99.90;;;;;;5008016;28;20212;-70
2021/10/31 12:14:51;;;;;;;3.97;2.15;;;20.70;99.90;;;;;;5033555;28;20740;-69
2021/10/31 12:17:18;;;;;;;6.40;2.47;;;20.70;99.90;;;;;;5049973;28;20294;-69
2021/10/31 12:19:47;;;;;;;5.00;2.28;;;20.60;99.90;;;;;;5049839;28;20261;-69
2021/10/31 12:22:16;;;;;;;4.07;2.58;;;20.70;99.90;;;;;;5048704;28;20264;-69
2021/10/31 12:24:46;;;;;;;5.03;2.55;;;20.70;99.90;;;;;;5050476;28;20211;-69
2021/10/31 12:27:15;;;;;;;5.07;1.95;;;21.00;99.90;;;;;;5049966;28;20210;-69
2021/10/31 12:29:59;;;;;;;5.20;1.80;;;21.10;99.90;;;;;;5050145;28;20264;-69
2021/10/31 12:32:30;;;;;;;6.72;2.08;;;21.40;99.90;;;;;;5049896;28;20226;-69
2021/10/31 12:34:58;;;;;;;3.00;2.30;;;21.10;99.90;;;;;;5050304;28;20257;-68
2021/10/31 12:37:28;;;;;;;2.80;1.73;;;20.90;99.90;;;;;;5050545;28;20297;-69
2021/10/31 12:39:58;;;;;;;4.65;2.30;;;20.60;99.90;;;;;;5050969;28;20261;-69
2021/10/31 12:42:27;;;;;;;3.92;2.40;;;20.70;99.90;;;;;;5050589;28;20603;-69
2021/10/31 12:44:59;;;;;;;3.50;2.55;;;20.90;99.90;;;;;;5045788;28;20688;-69
2021/10/31 12:47:37;;;;;;;3.25;2.10;;;20.80;99.90;;;;;;5045003;28;20661;-68
2021/10/31 12:50:13;;;;;;;8.02;2.47;;;20.90;99.90;;;;;;5049411;28;20677;-68
2021/10/31 12:52:42;;;;;;;7.72;2.63;;;20.90;99.90;;;;;;5046789;28;20203;-69
2021/10/31 12:55:11;;;;;;;5.93;3.38;;;20.70;99.90;;;;;;5049620;28;20294;-70
2021/10/31 12:57:39;;;;;;;10.20;4.85;;;20.90;99.90;;;;;;5050073;28;20210;-69